Sunday, October 21, 2018, 1:54 AM EDT
Back to Local

KEWB, New Bedford Regional Airport

Location: New Bedford, MA, United States Lat: 41.683
Local Time: 1:54 AM EDT ( 5:54 GMT) Lon: -70.967
Time Zone: US/Eastern Elev: 78 ft

Show me the last for .
Show Decoded

2018-10-21 00:53 METAR KEWB 210453Z AUTO 00000KT 4SM BR SCT090 04/04 A2958 RMK AO2 SLP015
                 T00440044 401830039 =
2018-10-20 23:53 METAR KEWB 210353Z AUTO 00000KT 10SM R05/5000VP6000FT FEW070 SCT090 06/06 A2959
                 RMK AO2 SLP018 T00560056 =
2018-10-20 23:41 METAR KEWB 210341Z AUTO 00000KT 10SM R05/4000VP6000FT CLR 05/05 A2959 RMK AO2
                 T00500050 =
2018-10-20 23:31 METAR KEWB 210331Z AUTO 00000KT 2SM R05/3500VP6000FT BR CLR 04/04 A2960 RMK AO2
                 VIS 1/2V5 T00440044 =
2018-10-20 22:55 METAR KEWB 210255Z AUTO 00000KT 3SM BR CLR 07/06 A2960 RMK AO2 T00670061 =
2018-10-20 22:53 METAR KEWB 210253Z AUTO 00000KT 1 3/4SM BR CLR 06/06 A2960 RMK AO2 SLP022
                 T00610061 53004 =
2018-10-20 22:42 METAR KEWB 210242Z AUTO 00000KT 2 1/2SM BR CLR 06/06 A2960 RMK AO2 T00610061 =
2018-10-20 21:53 METAR KEWB 210153Z 21003KT 10SM CLR 07/07 A2959 RMK AO2 SLP020 T00670067 =
2018-10-20 20:53 METAR KEWB 210053Z 00000KT 10SM CLR 08/08 A2959 RMK AO2 SLP018 T00830078 =
2018-10-20 19:53 METAR KEWB 202353Z 00000KT 10SM CLR 11/09 A2959 RMK AO2 SLP018 T01060089 10178
                 20100 53011 =
2018-10-20 18:53 METAR KEWB 202253Z 00000KT 10SM CLR 10/09 A2958 RMK AO2 SLP015 T01000094 =
2018-10-20 17:53 METAR KEWB 202153Z 24003KT 10SM CLR 14/09 A2956 RMK AO2 SLP008 T01440089 =
2018-10-20 16:53 METAR KEWB 202053Z 25005KT 10SM CLR 17/09 A2955 RMK AO2 SLP007 T01670094 56015 =
2018-10-20 15:53 METAR KEWB 201953Z 27009KT 10SM FEW038 18/10 A2957 RMK AO2 SLP013 T01780100 =
2018-10-20 14:53 METAR KEWB 201853Z COR 25012KT 10SM BKN034 17/11 A2958 RMK AO2 SLP015 T01720106
                 =
2018-10-20 13:53 METAR KEWB 201753Z 25011KT 10SM BKN034 17/11 A2960 RMK AO2 SLP022 T01720111
                 10183 20144 56024 =
2018-10-20 12:53 METAR KEWB 201653Z COR 26015KT 10SM BKN027 17/12 A2962 RMK AO2 SLP030 T01720122
                 =
2018-10-20 12:40 METAR KEWB 201640Z 25012G20KT 10SM SCT027 BKN033 17/12 A2962 RMK AO2 T01720122 =
2018-10-20 12:29 METAR KEWB 201629Z 26011G19KT 10SM BKN027 BKN033 OVC070 18/12 A2963 RMK AO2
                 T01780122 =
2018-10-20 12:00 METAR KEWB 201600Z COR 25011G22KT 10SM SCT020 BKN070 18/12 A2964 RMK AO2
                 T01780122 =
2018-10-20 11:53 METAR KEWB 201553Z 24014G21KT 10SM BKN023 BKN070 18/12 A2964 RMK AO2 SLP037
                 T01780122 =
2018-10-20 10:53 METAR KEWB 201453Z 24009G18KT 10SM SCT023 BKN028 BKN070 17/13 A2967 RMK AO2
                 SLP046 T01670128 58015 =
2018-10-20 10:15 METAR KEWB 201415Z 23011KT 10SM BKN025 OVC035 16/12 A2970 RMK AO2 T01560122 =
2018-10-20 09:53 METAR KEWB 201353Z 22010G22KT 10SM FEW022 SCT027 OVC060 15/12 A2971 RMK AO2
                 SLP061 T01500122 =
2018-10-20 08:53 METAR KEWB 201253Z 23011G20KT 10SM FEW046 OVC065 15/11 A2971 RMK AO2 SLP061
                 T01500111 =
2018-10-20 07:53 METAR KEWB 201153Z 23012KT 10SM OVC065 14/11 A2971 RMK AO2 RAE1058 SLP061 P0000
                 60002 70002 T01440106 10167 20139 56019 =
2018-10-20 06:53 METAR KEWB 201053Z 25007KT 10SM -RA SCT050 BKN060 OVC080 14/12 A2973 RMK AO2
                 RAB49 SLP067 P0000 T01390122 =
2018-10-20 05:53 METAR KEWB 200953Z AUTO 23011G21KT 10SM SCT085 BKN110 14/12 A2973 RMK AO2
                 RAB0857E51 SLP066 P0002 T01390117 =
2018-10-20 04:53 METAR KEWB 200853Z AUTO 22009KT 10SM FEW070 BKN085 OVC110 16/10 A2977 RMK AO2
                 RAE04B34E47 SLP080 P0000 60000 T01560100 58016 =
2018-10-20 03:53 METAR KEWB 200753Z AUTO 23011G17KT 10SM -RA FEW047 BKN080 OVC100 15/11 A2979 RMK
                 AO2 RAB43 SLP088 P0000 T01500106 =
2018-10-20 03:00 METAR KEWB 200700Z AUTO 23010G17KT 10SM FEW022 SCT030 BKN038 16/12 A2981 RMK AO2
                 T01560122 =
2018-10-20 02:53 METAR KEWB 200653Z AUTO 23010KT 10SM SCT023 BKN028 OVC044 16/12 A2981 RMK AO2 PK
                 WND 22026/0614 SLP095 T01560122 =
2018-10-20 02:51 METAR KEWB 200651Z AUTO 23010KT 10SM SCT023 BKN028 OVC044 16/12 A2981 RMK AO2 PK
                 WND 22026/0614 =

Support USWX by starting your Amazon purchase here.